Berovo, Macedonia
Current Conditions -  °F | °C
As of 7:00 PM on Saturday 22 Nov 2014 (Local Time) from LWSK Reporting Station
Clear Clear  
Wind Chill:   Ceiling: Unl
Heat Index:   Visibility: 6mi
Dew Point:   Wind: 7mph
Humidity: 76%   Direction: 30°NNE
Pressure: 30.33"   Gusts: NA
Location:  41.72°N, 22.86°E
Report Text: LWSK 221700Z 03006KT CAVOK 05/01 Q1027 NOSIG
Loading
Personal Weather Stations






























Interactive Weather Map New forecast layout! Learn more

10-Day Weather Forecast

Advertisements
Track Severe Weather on mobile